ADDS METAR Data INFO
IDs: Format: Raw Decoded Include TAF

Data at: 2348 UTC 16 Oct 2017

KBAZ 162251Z 02007KT 10SM CLR 24/05 A3021 RMK AO2 SLP224 T02440050
KBAZ 162151Z 03010KT 10SM CLR 25/06 A3021 RMK AO2 SLP225 T02500056
KBAZ 162051Z 02012KT 10SM CLR 26/07 A3022 RMK AO2 SLP226 T02560067 56035
KBAZ 161951Z 36010KT 10SM CLR 25/07 A3024 RMK AO2 SLP236 T02500067
KBAZ 161851Z 01012G17KT 10SM CLR 24/07 A3029 RMK AO2 PK WND 03027/1802 SLP251 T02390072
KBAZ 161751Z 36008G15KT 10SM CLR 23/07 A3032 RMK AO2 SLP262 T02280067 10228 20150 58012
KBAZ 161651Z 03009G17KT 10SM CLR 21/07 A3036 RMK AO2 SLP274 T02110067
KBAZ 161551Z 05014G21KT 10SM CLR 19/06 A3037 RMK AO2 SLP278 T01940061
KBAZ 161451Z 03013G23KT 10SM CLR 18/06 A3036 RMK AO2 SLP274 T01830056 53018
KBAZ 161351Z 02013G20KT 10SM CLR 16/05 A3034 RMK AO2 SLP269 T01610050 $
KBAZ 161251Z 02014KT 10SM CLR 15/04 A3032 RMK AO2 SLP263 T01500044 $
KBAZ 161151Z 02015G22KT 10SM CLR 16/05 A3030 RMK AO2 SLP256 T01560050 10183 20150 53010 $
KBAZ 161051Z AUTO 02014G21KT 10SM CLR 16/05 A3029 RMK AO2 SLP252 T01560050 $
KBAZ 160951Z AUTO 01012KT 10SM CLR 15/05 A3028 RMK AO2 SLP246 T01500050 $
KBAZ 160851Z AUTO 01012KT 10SM CLR 16/05 A3027 RMK AO2 SLP244 T01560050 50001 $
KBAZ 160751Z AUTO 02010KT 10SM CLR 16/05 A3028 RMK AO2 SLP249 T01610050 $
KBAZ 160651Z AUTO 02013KT 10SM CLR 17/05 A3027 RMK AO2 SLP244 T01720050
KBAZ 160551Z AUTO 02013KT 10SM CLR 18/06 A3027 RMK AO2 SLP244 T01830056 10233 20183 402720183 51004
KBAZ 160451Z AUTO 01013KT 10SM CLR 19/06 A3027 RMK AO2 SLP243 T01890061
KBAZ 160351Z AUTO 02015G20KT 10SM BKN110 20/07 A3026 RMK AO2 SLP241 T02000067
KBAZ 160251Z AUTO 01013KT 10SM CLR 21/08 A3026 RMK AO2 SLP240 T02060078 51025
KBAZ 160151Z AUTO 02006KT 10SM FEW110 20/09 A3024 RMK AO2 SLP232 T02000089
KBAZ 160051Z AUTO 01010KT 10SM CLR 21/11 A3021 RMK AO2 SLP222 T02110106
KBAZ 152351Z 02011KT 10SM CLR 23/11 A3018 RMK AO2 SLP214 T02330111 10272 20194 53014
KBAZ 152251Z 02018G24KT 10SM CLR 26/12 A3016 RMK AO2 SLP207 T02560117
KBAZ 152151Z 01015G21KT 10SM CLR 27/16 A3014 RMK AO2 SLP199 T02720156
KBAZ 152051Z 01011G19KT 10SM SCT033 27/17 A3014 RMK AO2 SLP199 T02670167 56012
KBAZ 151951Z 36014KT 10SM OVC031 26/17 A3015 RMK AO2 SLP203 T02610167
KBAZ 151947Z 36014KT 10SM OVC031 26/17 A3015 RMK AO2
KBAZ 151851Z 36016G20KT 10SM OVC026 25/17 A3018 RMK AO2 SLP211 T02500172
KBAZ 151751Z 36015KT 10SM OVC023 25/18 A3019 RMK AO2 SLP216 60000 T02500178 10267 20206 51019
KBAZ 151651Z 01015G26KT 10SM OVC018 24/18 A3019 RMK AO2 PK WND 36026/1644 SLP216 T02390183
KBAZ 151616Z 36014KT 10SM OVC015 24/19 A3018 RMK AO2 T02440194
KBAZ 151602Z 01018G23KT 10SM OVC014 24/20 A3017 RMK AO2 T02390200
KBAZ 151551Z 36016KT 10SM OVC016 25/21 A3016 RMK AO2 SLP206 T02500211
KBAZ 151525Z 36013G19KT 10SM BKN018 BKN035 26/22 A3015 RMK AO2 T02560217
KBAZ 151451Z 36004KT 10SM BKN035 BKN046 OVC070 25/22 A3014 RMK AO2 RAB17E48 SLP197 P0000 60000 T02500222 51027
KBAZ 151351Z 35005KT 7SM BKN050 BKN065 OVC085 24/22 A3012 RMK AO2 SLP190 T02390222
KBAZ 151251Z 02005KT 7SM BKN080 21/20 A3009 RMK AO2 SLP180 T02110200
KBAZ 151227Z 00000KT 7SM SCT019 22/21 A3007 RMK AO2 T02170206
KBAZ 151205Z 36003KT 7SM BKN019 22/21 A3006 RMK AO2 T02170206
KBAZ 151151Z AUTO 35004KT 7SM FEW017 21/19 A3006 RMK AO2 SLP170 T02060194 10233 20206 53015